createdAt,value
2022-10-17T00:01:43.913Z,96837.72
2022-10-17T00:04:16.786Z,96843.88
2022-10-17T00:06:51.267Z,96856.19
2022-10-17T00:09:24.178Z,96850.81
2022-10-17T00:11:57.171Z,96861.56
2022-10-17T00:14:33.098Z,96867.38
2022-10-17T00:17:06.375Z,96862.38
2022-10-17T00:19:39.282Z,96875.81
2022-10-17T00:22:13.788Z,96870.06
2022-10-17T00:24:46.567Z,96873.44
2022-10-17T00:27:19.814Z,96868.72
2022-10-17T00:29:53.345Z,96869.06
2022-10-17T00:32:26.349Z,96863.59
2022-10-17T00:34:59.761Z,96860.78
2022-10-17T00:37:37.041Z,96864.91
2022-10-17T00:40:11.383Z,96858.66
2022-10-17T00:42:44.371Z,96853.84
2022-10-17T00:45:23.409Z,96865.69
2022-10-17T00:48:01.308Z,96860.19
2022-10-17T00:50:36.584Z,96869.59
2022-10-17T00:53:11.951Z,96867.56
2022-10-17T00:55:50.782Z,96873.63
2022-10-17T00:58:23.982Z,96856.81
2022-10-17T01:00:56.764Z,96855.13
2022-10-17T01:03:29.751Z,96859.56
2022-10-17T01:06:02.778Z,96857.88
2022-10-17T01:08:37.420Z,96863.13
2022-10-17T01:11:21.822Z,96866.47
2022-10-17T01:13:59.924Z,96860.53
2022-10-17T01:16:40.691Z,96865.00
2022-10-17T01:19:37.462Z,96864.06
2022-10-17T01:22:16.521Z,96861.94
2022-10-17T01:25:19.697Z,96858.78
2022-10-17T01:28:06.958Z,96851.72
2022-10-17T01:31:00.743Z,96859.66
2022-10-17T01:33:45.228Z,96857.19
2022-10-17T01:36:28.955Z,96865.88
2022-10-17T01:39:09.082Z,96874.59
2022-10-17T01:41:45.252Z,96864.50
2022-10-17T01:44:23.084Z,96854.44
2022-10-17T01:47:04.338Z,96848.16
2022-10-17T01:49:41.776Z,96845.00
2022-10-17T01:52:20.082Z,96842.22
2022-10-17T01:54:56.914Z,96846.00
2022-10-17T01:57:34.453Z,96857.53
2022-10-17T02:00:12.555Z,96858.66
2022-10-17T02:02:49.847Z,96857.84
2022-10-17T02:05:28.935Z,96855.03
2022-10-17T02:08:01.892Z,96849.88
2022-10-17T02:10:41.399Z,96851.31
2022-10-17T02:13:22.186Z,96853.53
2022-10-17T02:16:14.102Z,96863.03
2022-10-17T02:19:08.756Z,96869.50
2022-10-17T02:21:50.372Z,96872.50
2022-10-17T02:24:38.023Z,96868.25
2022-10-17T02:27:15.207Z,96857.06
2022-10-17T02:29:50.139Z,96865.78
2022-10-17T02:32:29.836Z,96859.94
2022-10-17T02:35:08.724Z,96861.06
2022-10-17T02:37:43.296Z,96850.66
2022-10-17T02:40:19.953Z,96841.03
2022-10-17T02:42:55.580Z,96851.75
2022-10-17T02:45:35.807Z,96846.72
2022-10-17T02:48:14.140Z,96852.88
2022-10-17T02:51:03.219Z,96849.75
2022-10-17T02:53:41.534Z,96852.75
2022-10-17T02:56:19.203Z,96853.84
2022-10-17T02:58:55.600Z,96858.75
2022-10-17T03:01:29.990Z,96860.97
2022-10-17T03:04:07.831Z,96857.84
2022-10-17T03:06:42.793Z,96862.75
2022-10-17T03:09:16.357Z,96871.09
2022-10-17T03:11:49.259Z,96873.63
2022-10-17T03:14:22.113Z,96870.50
2022-10-17T03:16:55.009Z,96886.59
2022-10-17T03:19:27.824Z,96878.06
2022-10-17T03:22:02.170Z,96890.66
2022-10-17T03:24:35.015Z,96881.06
2022-10-17T03:27:07.932Z,96879.78
2022-10-17T03:29:40.729Z,96886.25
2022-10-17T03:32:13.515Z,96890.09
2022-10-17T03:34:46.341Z,96890.41
2022-10-17T03:37:20.658Z,96894.19
2022-10-17T03:39:53.477Z,96901.44
2022-10-17T03:42:26.430Z,96899.88
2022-10-17T03:44:59.379Z,96894.03
2022-10-17T03:47:32.665Z,96899.38
2022-10-17T03:50:06.272Z,96902.38
2022-10-17T03:52:40.549Z,96912.34
2022-10-17T03:55:13.338Z,96906.19
2022-10-17T03:57:46.310Z,96912.66
2022-10-17T04:00:19.151Z,96914.56
2022-10-17T04:02:52.128Z,96917.25
2022-10-17T04:05:25.474Z,96924.19
2022-10-17T04:08:02.384Z,96923.38
2022-10-17T04:10:37.669Z,96914.88
2022-10-17T04:13:10.494Z,96919.13
2022-10-17T04:15:43.299Z,96918.34
2022-10-17T04:18:16.244Z,96926.38
2022-10-17T04:20:49.081Z,96915.66
2022-10-17T04:23:23.949Z,96921.81
2022-10-17T04:25:57.299Z,96918.66
2022-10-17T04:28:30.350Z,96928.59
2022-10-17T04:31:05.793Z,96930.50
2022-10-17T04:33:38.654Z,96928.44
2022-10-17T04:36:13.356Z,96929.56
2022-10-17T04:38:48.148Z,96931.78
2022-10-17T04:41:20.917Z,96941.25
2022-10-17T04:43:53.770Z,96941.09
2022-10-17T04:46:26.718Z,96944.09
2022-10-17T04:48:59.607Z,96949.31
2022-10-17T04:51:32.443Z,96946.94
2022-10-17T04:54:07.374Z,96948.38
2022-10-17T04:56:40.113Z,96948.22
2022-10-17T04:59:12.882Z,96951.53
2022-10-17T05:01:45.610Z,96959.91
2022-10-17T05:04:22.378Z,96960.53
2022-10-17T05:06:57.587Z,96960.06
2022-10-17T05:09:32.065Z,96961.47
2022-10-17T05:12:06.761Z,96965.91
2022-10-17T05:14:45.051Z,96961.19
2022-10-17T05:17:18.145Z,96958.38
2022-10-17T05:19:51.458Z,96955.22
2022-10-17T05:22:24.284Z,96960.09
2022-10-17T05:24:59.049Z,96959.31
2022-10-17T05:27:32.197Z,96955.38
2022-10-17T05:30:06.149Z,96951.44
2022-10-17T05:32:39.031Z,96954.44
2022-10-17T05:35:11.894Z,96953.97
2022-10-17T05:37:45.017Z,96958.53
2022-10-17T05:40:19.452Z,96953.81
2022-10-17T05:42:53.202Z,96959.50
2022-10-17T05:45:26.142Z,96963.56
2022-10-17T05:47:59.108Z,96953.50
2022-10-17T05:50:32.181Z,96961.06
2022-10-17T05:53:05.025Z,96954.44
2022-10-17T05:55:39.733Z,96968.31
2022-10-17T05:58:21.742Z,96972.41
2022-10-17T06:00:59.805Z,96974.28
2022-10-17T06:03:33.000Z,96982.63
2022-10-17T06:06:06.980Z,96988.78
2022-10-17T06:08:39.874Z,96992.53
2022-10-17T06:11:14.574Z,96986.56
2022-10-17T06:13:47.348Z,96987.66
2022-10-17T06:16:20.186Z,97003.13
2022-10-17T06:18:53.365Z,97002.81
2022-10-17T06:21:27.924Z,97001.38
2022-10-17T06:24:00.874Z,97006.09
2022-10-17T06:26:35.105Z,97012.72
2022-10-17T06:29:08.689Z,97024.38
2022-10-17T06:31:41.556Z,97021.06
2022-10-17T06:34:14.349Z,97022.78
2022-10-17T06:36:47.599Z,97024.84
2022-10-17T06:39:20.953Z,97029.22
2022-10-17T06:41:55.211Z,97039.16
2022-10-17T06:44:31.623Z,97045.94
2022-10-17T06:47:04.720Z,97042.78
2022-10-17T06:49:37.561Z,97048.91
2022-10-17T06:52:11.766Z,97057.72
2022-10-17T06:54:44.945Z,97061.50
2022-10-17T06:57:20.004Z,97068.41
2022-10-17T06:59:53.506Z,97066.22
2022-10-17T07:02:26.579Z,97073.13
2022-10-17T07:04:59.562Z,97067.88
2022-10-17T07:07:33.263Z,97081.41
2022-10-17T07:10:08.577Z,97078.38
2022-10-17T07:12:44.925Z,97078.63
2022-10-17T07:15:18.011Z,97073.34
2022-10-17T07:17:51.510Z,97095.38
2022-10-17T07:20:24.317Z,97097.81
2022-10-17T07:22:57.261Z,97100.28
2022-10-17T07:25:30.102Z,97098.75
2022-10-17T07:28:04.847Z,97090.13
2022-10-17T07:30:37.704Z,97102.53
2022-10-17T07:33:10.507Z,97099.56
2022-10-17T07:35:43.417Z,97102.31
2022-10-17T07:38:16.229Z,97102.38
2022-10-17T07:40:55.502Z,97101.72
2022-10-17T07:43:30.702Z,97102.09
2022-10-17T07:46:04.552Z,97096.72
2022-10-17T07:48:37.897Z,97100.59
2022-10-17T07:51:11.689Z,97104.88
2022-10-17T07:53:47.968Z,97109.16
2022-10-17T07:56:24.715Z,97109.13
2022-10-17T07:59:00.773Z,97102.63
2022-10-17T08:01:37.160Z,97114.63
2022-10-17T08:04:11.920Z,97109.25
2022-10-17T08:06:45.040Z,97112.25
2022-10-17T08:09:18.443Z,97111.44
2022-10-17T08:11:51.219Z,97116.03
2022-10-17T08:14:25.775Z,97122.88
2022-10-17T08:16:59.051Z,97121.94
2022-10-17T08:19:31.939Z,97119.97
2022-10-17T08:22:04.790Z,97122.19
2022-10-17T08:24:38.006Z,97117.44
2022-10-17T08:27:13.696Z,97113.13
2022-10-17T08:29:48.879Z,97115.31
2022-10-17T08:32:24.936Z,97117.84
2022-10-17T08:34:58.075Z,97120.00
2022-10-17T08:37:31.812Z,97120.25
2022-10-17T08:40:05.792Z,97122.00
2022-10-17T08:42:53.485Z,97121.47
2022-10-17T08:45:33.309Z,97126.69
2022-10-17T08:48:11.295Z,97129.91
2022-10-17T08:50:47.628Z,97127.03
2022-10-17T08:53:24.277Z,97133.72
2022-10-17T08:55:57.749Z,97126.16
2022-10-17T08:58:34.476Z,97130.59
2022-10-17T09:01:20.561Z,97133.00
2022-10-17T09:04:06.747Z,97128.88
2022-10-17T09:06:44.008Z,97136.75
2022-10-17T09:09:32.958Z,97132.28
2022-10-17T09:12:16.289Z,97131.28
2022-10-17T09:15:18.902Z,97133.03
2022-10-17T09:17:57.901Z,97130.13
2022-10-17T09:20:34.694Z,97143.88
2022-10-17T09:23:14.532Z,97135.56
2022-10-17T09:25:49.963Z,97138.06
2022-10-17T09:28:28.626Z,97134.00
2022-10-17T09:31:04.421Z,97137.63
2022-10-17T09:33:56.638Z,97134.69
2022-10-17T09:36:32.105Z,97147.28
2022-10-17T09:39:07.606Z,97134.25
2022-10-17T09:41:46.868Z,97133.63
2022-10-17T09:44:22.932Z,97135.66
2022-10-17T09:47:23.552Z,97141.63
2022-10-17T09:49:58.143Z,97138.63
2022-10-17T09:52:35.935Z,97137.97
2022-10-17T09:55:19.152Z,97147.78
2022-10-17T09:57:54.963Z,97141.66
2022-10-17T10:00:30.227Z,97146.75
2022-10-17T10:03:19.783Z,97150.34
2022-10-17T10:06:05.616Z,97148.53
2022-10-17T10:08:50.768Z,97149.06
2022-10-17T10:11:25.783Z,97144.53
2022-10-17T10:14:13.311Z,97143.59
2022-10-17T10:16:48.195Z,97157.25
2022-10-17T10:19:30.830Z,97151.56
2022-10-17T10:22:14.877Z,97156.31
2022-10-17T10:24:57.188Z,97146.31
2022-10-17T10:27:30.850Z,97151.09
2022-10-17T10:30:05.610Z,97157.41
2022-10-17T10:32:38.957Z,97150.06
2022-10-17T10:35:22.216Z,97154.06
2022-10-17T10:37:58.730Z,97153.75
2022-10-17T10:40:35.087Z,97163.13
2022-10-17T10:43:08.924Z,97160.88
2022-10-17T10:45:48.720Z,97146.97
2022-10-17T10:48:24.793Z,97155.22
2022-10-17T10:50:59.714Z,97157.25
2022-10-17T10:53:42.640Z,97146.88
2022-10-17T10:56:21.673Z,97148.50
2022-10-17T10:58:57.540Z,97144.69
2022-10-17T11:01:43.394Z,97143.63
2022-10-17T11:04:27.336Z,97151.47
2022-10-17T11:07:05.085Z,97138.34
2022-10-17T11:09:47.764Z,97133.75
2022-10-17T11:12:25.412Z,97121.34
2022-10-17T11:15:02.575Z,97125.31
2022-10-17T11:17:41.610Z,97120.75
2022-10-17T11:20:23.852Z,97124.28
2022-10-17T11:23:02.979Z,97120.06
2022-10-17T11:25:39.682Z,97115.81
2022-10-17T11:28:15.794Z,97123.22
2022-10-17T11:30:53.485Z,97119.03
2022-10-17T11:33:32.870Z,97120.63
2022-10-17T11:36:11.205Z,97117.94
2022-10-17T11:38:49.311Z,97121.09
2022-10-17T11:41:29.327Z,97118.81
2022-10-17T11:44:10.095Z,97112.66
2022-10-17T11:46:47.380Z,97112.69
2022-10-17T11:52:08.187Z,97115.84
2022-10-17T11:54:46.564Z,97111.19
2022-10-17T11:57:37.463Z,97119.00
2022-10-17T12:00:24.622Z,97111.25
2022-10-17T12:03:08.934Z,97102.28
2022-10-17T12:05:50.333Z,97101.53
2022-10-17T12:08:31.327Z,97108.91
2022-10-17T12:11:12.102Z,97103.47
2022-10-17T12:13:51.892Z,97097.66
2022-10-17T12:16:51.605Z,97102.34
2022-10-17T12:19:35.232Z,97100.78
2022-10-17T12:22:21.381Z,97100.41
2022-10-17T12:24:57.687Z,97094.59
2022-10-17T12:27:38.574Z,97094.56
2022-10-17T12:30:32.006Z,97092.25
2022-10-17T12:33:21.927Z,97089.50
2022-10-17T12:36:47.566Z,97084.88
2022-10-17T12:39:51.500Z,97082.56
2022-10-17T12:42:46.013Z,97088.78
2022-10-17T12:45:48.555Z,97085.28
2022-10-17T12:49:01.411Z,97089.59
2022-10-17T12:52:07.631Z,97087.25
2022-10-17T12:54:48.027Z,97082.97
2022-10-17T12:57:39.618Z,97081.81
2022-10-17T13:00:23.738Z,97087.63
2022-10-17T13:03:05.687Z,97082.16
2022-10-17T13:05:42.232Z,97075.16
2022-10-17T13:08:19.227Z,97081.38
2022-10-17T13:10:54.751Z,97086.47
2022-10-17T13:13:37.460Z,97084.13
2022-10-17T13:16:10.900Z,97082.19
2022-10-17T13:18:54.133Z,97081.00
2022-10-17T13:21:27.790Z,97080.63
2022-10-17T13:24:01.175Z,97082.94
2022-10-17T13:26:34.227Z,97070.50
2022-10-17T13:29:11.831Z,97076.34
2022-10-17T13:31:45.932Z,97087.25
2022-10-17T13:34:22.130Z,97076.34
2022-10-17T13:36:58.126Z,97074.78
2022-10-17T13:39:54.465Z,97077.91
2022-10-17T13:42:30.888Z,97076.34
2022-10-17T13:45:05.479Z,97069.34
2022-10-17T13:47:40.411Z,97065.06
2022-10-17T13:50:44.135Z,97067.41
2022-10-17T13:53:21.546Z,97073.22
2022-10-17T13:56:22.965Z,97068.16
2022-10-17T13:58:53.868Z,97066.22
2022-10-17T14:01:29.302Z,97072.84
2022-10-17T14:04:09.226Z,97071.28
2022-10-17T14:06:49.297Z,97065.44
2022-10-17T14:09:26.638Z,97067.00
2022-10-17T14:12:04.631Z,97070.91
2022-10-17T14:14:58.393Z,97070.13
2022-10-17T14:17:32.852Z,97068.94
2022-10-17T14:20:40.790Z,97068.94
2022-10-17T14:23:21.858Z,97056.09
2022-10-17T14:26:23.089Z,97051.81
2022-10-17T14:29:06.149Z,97063.88
2022-10-17T14:31:40.027Z,97056.06
2022-10-17T14:34:24.911Z,97058.44
2022-10-17T14:36:57.953Z,97064.66
2022-10-17T14:39:32.206Z,97069.34
2022-10-17T14:42:05.149Z,97059.19
2022-10-17T14:44:38.040Z,97067.72
2022-10-17T14:47:42.287Z,97066.97
2022-10-17T14:50:23.878Z,97063.44
2022-10-17T14:53:06.061Z,97069.66
2022-10-17T14:55:55.670Z,97060.31
2022-10-17T14:58:29.963Z,97060.69
2022-10-17T15:01:03.642Z,97066.94
2022-10-17T15:03:36.599Z,97068.47
2022-10-17T15:06:19.362Z,97066.91
2022-10-17T15:08:52.224Z,97073.50
2022-10-17T15:11:26.429Z,97063.38
2022-10-17T15:13:59.317Z,97073.09
2022-10-17T15:16:33.768Z,97073.88
2022-10-17T15:19:06.613Z,97066.88
2022-10-17T15:21:43.372Z,97073.47
2022-10-17T15:24:19.824Z,97073.84
2022-10-17T15:29:32.746Z,97071.09
2022-10-17T15:32:05.704Z,97069.16
2022-10-17T15:34:39.194Z,97069.91
2022-10-17T15:37:20.948Z,97067.56
2022-10-17T15:39:55.947Z,97067.56
2022-10-17T15:42:31.437Z,97070.25
2022-10-17T15:45:04.816Z,97067.88
2022-10-17T15:47:38.213Z,97069.78
2022-10-17T15:50:14.691Z,97069.00
2022-10-17T15:52:47.776Z,97075.97
2022-10-17T15:55:21.331Z,97075.19
2022-10-17T15:57:56.096Z,97073.59
2022-10-17T16:00:29.118Z,97074.34
2022-10-17T16:03:01.974Z,97080.94
2022-10-17T16:05:34.845Z,97075.03
2022-10-17T16:08:07.676Z,97080.81
2022-10-17T16:10:41.689Z,97078.44
2022-10-17T16:13:18.989Z,97083.81
2022-10-17T16:15:51.926Z,97088.38
2022-10-17T16:18:24.724Z,97086.75
2022-10-17T16:20:57.736Z,97099.47
2022-10-17T16:23:30.561Z,97100.16
2022-10-17T16:26:03.360Z,97098.09
2022-10-17T16:28:39.523Z,97100.75
2022-10-17T16:31:21.207Z,97104.50
2022-10-17T16:33:55.969Z,97116.00
2022-10-17T16:36:29.298Z,97110.78
2022-10-17T16:39:02.437Z,97111.78
2022-10-17T16:41:37.189Z,97116.31
2022-10-17T16:44:14.573Z,97120.47
2022-10-17T16:46:47.441Z,97120.25
2022-10-17T16:49:20.207Z,97127.84
2022-10-17T16:51:53.165Z,97123.41
2022-10-17T16:54:25.932Z,97125.16
2022-10-17T16:56:58.838Z,97117.22
2022-10-17T16:59:32.979Z,97132.53
2022-10-17T17:02:06.340Z,97130.81
2022-10-17T17:04:39.133Z,97130.63
2022-10-17T17:07:12.778Z,97145.13
2022-10-17T17:09:45.568Z,97147.63
2022-10-17T17:12:18.435Z,97149.75
2022-10-17T17:14:52.624Z,97156.97
2022-10-17T17:17:36.877Z,97163.34
2022-10-17T17:20:10.538Z,97166.63
2022-10-17T17:22:43.419Z,97168.41
2022-10-17T17:25:16.333Z,97169.75
2022-10-17T17:27:49.438Z,97167.25
2022-10-17T17:30:23.703Z,97165.53
2022-10-17T17:32:56.875Z,97167.66
2022-10-17T17:35:30.652Z,97168.28
2022-10-17T17:38:04.706Z,97173.53
2022-10-17T17:40:37.629Z,97186.97
2022-10-17T17:43:10.448Z,97193.00
2022-10-17T17:45:44.765Z,97197.88
2022-10-17T17:48:17.801Z,97199.63
2022-10-17T17:50:50.631Z,97204.88
2022-10-17T17:53:23.707Z,97208.19
2022-10-17T17:56:03.767Z,97211.13
2022-10-17T17:58:36.917Z,97220.19
2022-10-17T18:01:15.070Z,97220.47
2022-10-17T18:03:49.339Z,97228.41
2022-10-17T18:06:23.877Z,97229.09
2022-10-17T18:08:58.958Z,97229.78
2022-10-17T18:11:32.135Z,97230.81
2022-10-17T18:14:06.837Z,97225.75
2022-10-17T18:16:41.283Z,97226.44
2022-10-17T18:19:14.218Z,97224.44
2022-10-17T18:21:47.073Z,97225.13
2022-10-17T18:24:20.293Z,97223.91
2022-10-17T18:26:56.093Z,97215.72
2022-10-17T18:29:29.811Z,97220.69
2022-10-17T18:32:03.995Z,97220.56
2022-10-17T18:34:36.822Z,97218.88
2022-10-17T18:37:09.860Z,97226.09
2022-10-17T18:39:42.715Z,97218.72
2022-10-17T18:42:15.733Z,97212.75
2022-10-17T18:44:48.930Z,97216.16
2022-10-17T18:47:23.071Z,97216.50
2022-10-17T18:49:55.974Z,97223.69
2022-10-17T18:52:28.981Z,97222.50
2022-10-17T18:55:01.980Z,97232.06
2022-10-17T18:57:34.803Z,97225.06
2022-10-17T19:00:09.341Z,97236.22
2022-10-17T19:02:43.562Z,97237.69
2022-10-17T19:05:16.808Z,97242.31
2022-10-17T19:07:50.290Z,97243.44
2022-10-17T19:10:23.132Z,97250.28
2022-10-17T19:12:55.993Z,97246.47
2022-10-17T19:15:29.167Z,97243.78
2022-10-17T19:18:04.048Z,97242.19
2022-10-17T19:20:36.915Z,97240.16
2022-10-17T19:23:09.753Z,97240.88
2022-10-17T19:25:42.576Z,97239.31
2022-10-17T19:28:15.419Z,97241.53
2022-10-17T19:30:48.232Z,97234.13
2022-10-17T19:33:22.468Z,97243.38
2022-10-17T19:35:58.958Z,97246.50
2022-10-17T19:38:32.185Z,97244.91
2022-10-17T19:41:08.648Z,97232.59
2022-10-17T19:43:42.943Z,97230.56
2022-10-17T19:46:18.379Z,97230.91
2022-10-17T19:48:53.416Z,97240.91
2022-10-17T19:51:27.043Z,97240.44
2022-10-17T19:54:02.028Z,97238.13
2022-10-17T19:56:37.776Z,97241.94
2022-10-17T19:59:13.048Z,97235.75
2022-10-17T20:01:48.453Z,97242.72
2022-10-17T20:04:28.245Z,97235.06
2022-10-17T20:07:01.440Z,97235.41
2022-10-17T20:09:34.374Z,97229.56
2022-10-17T20:12:07.504Z,97233.06
2022-10-17T20:14:41.257Z,97234.25
2022-10-17T20:17:14.573Z,97235.06
2022-10-17T20:19:48.851Z,97243.59
2022-10-17T20:22:21.934Z,97245.16
2022-10-17T20:24:54.753Z,97250.56
2022-10-17T20:27:27.967Z,97257.53
2022-10-17T20:30:01.942Z,97264.06
2022-10-17T20:32:39.478Z,97248.19
2022-10-17T20:35:13.998Z,97252.81
2022-10-17T20:37:46.775Z,97254.31
2022-10-17T20:40:35.881Z,97257.66
2022-10-17T20:43:09.545Z,97264.63
2022-10-17T20:45:51.549Z,97265.75
2022-10-17T20:48:25.139Z,97265.63
2022-10-17T20:50:59.337Z,97273.72
2022-10-17T20:53:43.256Z,97270.16
2022-10-17T20:56:20.273Z,97273.97
2022-10-17T20:58:55.310Z,97269.59
2022-10-17T21:01:29.455Z,97257.91
2022-10-17T21:04:26.890Z,97259.81
2022-10-17T21:06:58.449Z,97263.19
2022-10-17T21:09:31.289Z,97255.34
2022-10-17T21:12:05.372Z,97255.34
2022-10-17T21:14:38.550Z,97253.66
2022-10-17T21:17:11.355Z,97264.78
2022-10-17T21:19:44.193Z,97266.69
2022-10-17T21:22:18.798Z,97264.34
2022-10-17T21:24:51.612Z,97257.38
2022-10-17T21:27:24.469Z,97256.13
2022-10-17T21:29:57.468Z,97258.03
2022-10-17T21:32:40.393Z,97259.94
2022-10-17T21:35:20.378Z,97263.72
2022-10-17T21:37:54.579Z,97250.59
2022-10-17T21:40:27.522Z,97255.53
2022-10-17T21:43:00.351Z,97257.78
2022-10-17T21:45:33.189Z,97256.91
2022-10-17T21:48:13.744Z,97260.72
2022-10-17T21:50:46.623Z,97263.28
2022-10-17T21:53:22.116Z,97256.31
2022-10-17T21:55:55.105Z,97259.25
2022-10-17T21:58:28.856Z,97263.41
2022-10-17T22:01:06.977Z,97267.22
2022-10-17T22:03:44.212Z,97266.31
2022-10-17T22:09:19.044Z,97263.81
2022-10-17T22:11:54.293Z,97257.56
2022-10-17T22:14:28.544Z,97269.00
2022-10-17T22:17:01.670Z,97263.50
2022-10-17T22:19:34.564Z,97270.34
2022-10-17T22:22:07.433Z,97271.31
2022-10-17T22:24:41.937Z,97274.69
2022-10-17T22:27:14.923Z,97271.41
2022-10-17T22:29:47.852Z,97278.59
2022-10-17T22:32:22.567Z,97292.72
2022-10-17T22:34:55.595Z,97289.13
2022-10-17T22:37:28.701Z,97285.97
2022-10-17T22:40:03.141Z,97288.53
2022-10-17T22:42:36.719Z,97285.75
2022-10-17T22:45:10.341Z,97279.91
2022-10-17T22:47:43.551Z,97282.81
2022-10-17T22:50:16.603Z,97273.81
2022-10-17T22:52:49.525Z,97270.66
2022-10-17T22:55:23.708Z,97265.94
2022-10-17T22:57:56.602Z,97263.44
2022-10-17T23:03:07.419Z,97267.13
2022-10-17T23:05:40.298Z,97273.94
2022-10-17T23:08:13.558Z,97268.41
2022-10-17T23:10:48.829Z,97264.03
2022-10-17T23:13:22.045Z,97265.34
2022-10-17T23:15:57.043Z,97257.94
2022-10-17T23:21:03.625Z,97258.47
2022-10-17T23:23:37.542Z,97257.53
2022-10-17T23:26:13.959Z,97256.75
2022-10-17T23:28:46.947Z,97262.00
2022-10-17T23:31:21.239Z,97272.00
2022-10-17T23:33:54.313Z,97269.94
2022-10-17T23:36:27.209Z,97265.69
2022-10-17T23:39:00.235Z,97266.78
2022-10-17T23:41:35.055Z,97264.41
2022-10-17T23:44:07.890Z,97263.66
2022-10-17T23:46:41.039Z,97260.19
2022-10-17T23:49:14.014Z,97269.34
2022-10-17T23:51:46.812Z,97267.00
2022-10-17T23:54:19.896Z,97258.47
2022-10-17T23:56:54.104Z,97270.00
2022-10-17T23:59:26.999Z,97260.34
